Time;durP1;ratioP1;P1;durP2;ratioP2;P2;SDS_P1;SDS_P2;PMS_P1;PMS_P2;Temp;Humidity;BMP_temperature;BMP_pressure;BME280_temperature;BME280_humidity;BME280_pressure;Samples;Min_cycle;Max_cycle;Signal;HPM_P1;HPM_P2
2022/07/10 00:05:18;;;;;;;6.50;5.35;;;12.20;99.90;;;;;;21063787;28;20416;-59
2022/07/10 00:15:21;;;;;;;6.55;5.00;;;12.20;99.90;;;;;;21063232;28;20101;-55
2022/07/10 00:25:23;;;;;;;7.63;4.32;;;12.10;99.90;;;;;;21024983;28;20036;-60
2022/07/10 00:35:26;;;;;;;8.63;6.28;;;11.90;99.90;;;;;;20978377;28;20173;-55
2022/07/10 00:45:28;;;;;;;6.75;5.55;;;11.80;99.90;;;;;;20979273;28;20041;-55
2022/07/10 00:55:32;;;;;;;5.70;4.75;;;11.60;99.90;;;;;;20980067;28;20081;-59
2022/07/10 01:05:34;;;;;;;6.40;4.93;;;11.50;99.90;;;;;;21057873;28;20075;-56
2022/07/10 01:15:37;;;;;;;6.72;5.47;;;11.40;99.90;;;;;;21058425;28;20032;-59
2022/07/10 01:25:40;;;;;;;6.88;5.10;;;11.20;99.90;;;;;;21057814;28;20032;-53
2022/07/10 01:35:43;;;;;;;7.65;4.88;;;11.60;99.90;;;;;;21056647;28;20035;-56
2022/07/10 01:45:45;;;;;;;6.45;4.88;;;11.60;99.90;;;;;;21032007;28;20032;-56
2022/07/10 01:55:48;;;;;;;11.15;6.13;;;11.40;99.90;;;;;;20971380;28;20036;-59
2022/07/10 02:05:50;;;;;;;7.35;6.28;;;11.20;99.90;;;;;;20970625;28;20048;-59
2022/07/10 02:15:53;;;;;;;7.53;6.03;;;11.10;99.90;;;;;;20970162;28;20040;-55
2022/07/10 02:25:56;;;;;;;8.23;6.00;;;11.30;99.90;;;;;;21011233;28;20101;-59
2022/07/10 02:35:59;;;;;;;7.05;4.68;;;11.20;99.90;;;;;;21052226;28;20041;-59
2022/07/10 02:46:01;;;;;;;5.45;4.25;;;11.30;99.90;;;;;;21051874;28;20028;-54
2022/07/10 02:56:04;;;;;;;7.25;4.40;;;11.40;99.90;;;;;;21043761;28;20563;-55
2022/07/10 03:06:06;;;;;;;7.88;3.80;;;11.50;99.90;;;;;;20983951;28;20044;-59
2022/07/10 03:16:08;;;;;;;5.40;3.90;;;11.60;99.90;;;;;;20967300;28;20396;-59
2022/07/10 03:26:11;;;;;;;5.80;4.38;;;11.70;99.90;;;;;;20960829;28;20036;-55
2022/07/10 03:36:14;;;;;;;15.98;9.55;;;11.40;99.90;;;;;;20982928;28;20505;-59
2022/07/10 03:46:16;;;;;;;4.65;3.47;;;11.40;99.90;;;;;;21011709;28;20032;-59
2022/07/10 04:06:44;;;;;;;4.78;1.70;;;11.30;99.90;;;;;;21054674;28;20059;-57
2022/07/10 04:16:46;;;;;;;6.85;2.70;;;11.30;99.90;;;;;;21063582;28;20105;-59
2022/07/10 04:26:48;;;;;;;4.45;2.80;;;11.30;99.90;;;;;;21013699;28;20025;-59
2022/07/10 04:36:51;;;;;;;3.50;2.65;;;11.30;99.90;;;;;;20978416;28;20036;-57
2022/07/10 04:46:53;;;;;;;2.85;2.22;;;11.30;99.90;;;;;;20979313;28;20040;-59
2022/07/10 04:56:55;;;;;;;5.38;3.30;;;11.30;99.90;;;;;;20992065;28;20113;-55
2022/07/10 05:06:58;;;;;;;4.18;2.10;;;11.50;99.90;;;;;;21059455;28;20048;-59
2022/07/10 05:17:00;;;;;;;2.60;1.85;;;11.60;99.90;;;;;;21059055;28;20097;-59
2022/07/10 05:27:03;;;;;;;4.05;2.10;;;11.60;99.90;;;;;;21059132;28;20421;-59
2022/07/10 05:37:06;;;;;;;3.80;1.70;;;11.70;99.90;;;;;;21057110;28;20070;-56
2022/07/10 05:47:09;;;;;;;2.70;1.65;;;11.90;99.90;;;;;;21019930;28;20041;-59
2022/07/10 05:57:11;;;;;;;2.10;1.60;;;12.30;99.90;;;;;;20971466;28;20036;-56
2022/07/10 06:07:14;;;;;;;2.25;1.48;;;12.70;99.90;;;;;;20970680;28;20070;-55
2022/07/10 06:17:16;;;;;;;2.17;0.98;;;13.60;99.90;;;;;;20970171;28;20474;-56
2022/07/10 06:27:18;;;;;;;1.30;0.60;;;15.30;99.90;;;;;;21022506;28;20388;-61
2022/07/10 06:37:22;;;;;;;1.75;0.93;;;19.90;99.50;;;;;;21053073;28;20093;-60
2022/07/10 06:57:45;;;;;;;1.92;0.95;;;24.20;85.80;;;;;;21029115;28;20090;-55
2022/07/10 07:07:47;;;;;;;1.65;0.80;;;25.60;83.10;;;;;;20951888;28;20570;-57
2022/07/10 07:18:08;;;;;;;0.98;0.70;;;27.30;79.30;;;;;;20966733;28;20098;-61
2022/07/10 07:28:10;;;;;;;1.63;0.90;;;28.30;76.60;;;;;;20966445;28;20031;-49
2022/07/10 07:38:13;;;;;;;1.20;1.00;;;28.50;76.20;;;;;;20965676;28;20089;-62
2022/07/10 07:48:16;;;;;;;2.55;1.05;;;28.90;76.00;;;;;;20966893;28;20443;-61
2022/07/10 07:58:18;;;;;;;1.38;1.20;;;29.00;74.50;;;;;;20964495;28;20032;-61
2022/07/10 08:08:21;;;;;;;2.50;1.10;;;28.50;72.60;;;;;;21007542;28;20048;-61
2022/07/10 08:18:23;;;;;;;2.22;1.38;;;28.00;74.00;;;;;;21062700;28;20032;-62
2022/07/10 08:28:26;;;;;;;2.65;0.80;;;27.30;73.00;;;;;;20999294;28;20410;-61
2022/07/10 08:38:29;;;;;;;3.15;1.10;;;27.00;75.00;;;;;;20977779;28;20097;-61
2022/07/10 08:48:36;;;;;;;2.88;1.00;;;26.90;74.10;;;;;;20960402;28;20028;-62
2022/07/10 08:58:38;;;;;;;3.92;1.08;;;26.90;77.50;;;;;;21005968;28;20036;-57
2022/07/10 09:08:58;;;;;;;3.28;1.00;;;26.60;74.80;;;;;;21059390;28;20086;-61
2022/07/10 09:19:19;;;;;;;1.02;0.75;;;26.30;76.00;;;;;;21058646;28;20067;-62
2022/07/10 09:29:22;;;;;;;2.13;0.68;;;26.80;74.70;;;;;;21057402;28;20028;-62
2022/07/10 09:39:25;;;;;;;2.72;0.80;;;27.10;73.10;;;;;;21056867;28;20032;-62
2022/07/10 09:49:30;;;;;;;2.05;0.70;;;27.30;68.90;;;;;;21000845;28;20032;-61
2022/07/10 09:59:32;;;;;;;1.83;0.80;;;27.10;67.10;;;;;;20987749;28;20063;-62
2022/07/10 10:09:41;;;;;;;1.15;0.90;;;27.20;69.70;;;;;;20970990;28;20048;-57
2022/07/10 10:30:07;;;;;;;1.05;0.88;;;27.90;68.30;;;;;;21034799;28;20040;-57
2022/07/10 10:40:30;;;;;;;1.67;0.90;;;27.80;68.60;;;;;;21052182;28;20432;-62
2022/07/10 10:50:39;;;;;;;1.95;0.90;;;27.90;70.90;;;;;;21051607;28;20365;-58
2022/07/10 11:00:42;;;;;;;1.27;0.90;;;28.30;72.40;;;;;;21005627;28;20534;-62
2022/07/10 11:10:45;;;;;;;2.53;1.13;;;28.50;71.20;;;;;;20968501;28;20053;-61
2022/07/10 11:20:55;;;;;;;3.00;1.02;;;27.40;67.50;;;;;;20966897;28;20040;-62
2022/07/10 11:30:57;;;;;;;2.45;1.00;;;27.10;72.60;;;;;;20983415;28;20559;-57
2022/07/10 11:41:01;;;;;;;3.40;1.00;;;27.30;73.40;;;;;;20966626;28;20165;-61
2022/07/10 11:51:20;;;;;;;2.90;0.90;;;28.10;71.10;;;;;;21050050;28;20032;-62
2022/07/10 12:01:23;;;;;;;1.10;1.00;;;28.60;72.00;;;;;;21064726;28;20108;-62
2022/07/10 12:11:25;;;;;;;2.55;0.98;;;29.20;65.80;;;;;;21063554;28;20052;-61
2022/07/10 12:21:29;;;;;;;1.27;0.70;;;27.80;68.90;;;;;;21059251;28;20048;-61
2022/07/10 12:31:33;;;;;;;2.92;1.40;;;27.00;69.60;;;;;;20978597;28;20032;-58
2022/07/10 12:41:59;;;;;;;2.83;1.08;;;27.50;71.50;;;;;;20977990;28;20040;-62
2022/07/10 12:52:02;;;;;;;2.80;1.27;;;28.40;70.40;;;;;;20976196;28;20098;-61
2022/07/10 13:02:22;;;;;;;3.20;1.00;;;28.60;69.90;;;;;;21033845;28;20097;-61
2022/07/10 13:12:25;;;;;;;1.38;0.85;;;27.50;67.40;;;;;;21058330;28;20184;-62
2022/07/10 13:22:27;;;;;;;1.33;0.90;;;27.70;71.70;;;;;;21074679;28;20028;-61
2022/07/10 13:32:30;;;;;;;3.72;1.25;;;26.80;70.00;;;;;;21056926;28;20069;-62
2022/07/10 13:42:33;;;;;;;1.33;0.70;;;26.50;73.70;;;;;;21055948;28;20032;-61
2022/07/10 13:52:35;;;;;;;1.70;1.30;;;25.40;70.80;;;;;;20988305;28;20078;-61
2022/07/10 14:02:38;;;;;;;1.55;1.20;;;25.30;71.30;;;;;;20972215;28;20036;-60
2022/07/10 14:12:41;;;;;;;1.90;1.23;;;24.30;76.50;;;;;;20969378;28;20048;-60
2022/07/10 14:22:46;;;;;;;3.78;1.45;;;23.70;75.00;;;;;;20977468;28;20376;-56
2022/07/10 14:32:48;;;;;;;1.55;1.30;;;22.50;78.90;;;;;;21052587;28;20485;-60
2022/07/10 14:42:56;;;;;;;3.85;1.40;;;22.40;79.60;;;;;;21069453;28;20097;-60
2022/07/10 14:52:59;;;;;;;3.78;1.63;;;22.50;74.90;;;;;;21052478;28;20036;-60
2022/07/10 15:03:04;;;;;;;1.42;1.00;;;22.30;75.20;;;;;;20951154;28;20040;-59
2022/07/10 15:13:06;;;;;;;2.15;1.35;;;21.90;80.20;;;;;;20967499;28;20048;-60
2022/07/10 15:23:09;;;;;;;3.80;1.40;;;21.80;79.10;;;;;;20979602;28;20082;-60
2022/07/10 15:33:12;;;;;;;3.75;1.20;;;22.10;79.00;;;;;;20982793;28;20395;-61
2022/07/10 15:43:15;;;;;;;4.07;1.10;;;23.90;78.40;;;;;;20985112;28;20098;-60
2022/07/10 15:53:17;;;;;;;2.53;1.13;;;24.50;75.60;;;;;;21065282;28;20054;-60
2022/07/10 16:03:19;;;;;;;6.18;1.40;;;24.40;75.40;;;;;;21065315;28;20385;-60
2022/07/10 16:13:22;;;;;;;2.83;1.30;;;24.20;74.30;;;;;;21063508;28;20052;-60
2022/07/10 16:23:24;;;;;;;3.92;1.10;;;24.00;74.80;;;;;;21042225;28;20044;-60
2022/07/10 16:33:28;;;;;;;3.80;1.02;;;23.30;75.70;;;;;;20978064;28;20029;-59
2022/07/10 16:43:32;;;;;;;1.45;1.10;;;23.50;75.70;;;;;;20977461;28;20037;-60
2022/07/10 16:53:37;;;;;;;2.25;0.90;;;24.10;71.70;;;;;;20976801;28;20037;-60
2022/07/10 17:03:39;;;;;;;0.80;0.70;;;23.60;78.50;;;;;;21048492;28;20044;-60
2022/07/10 17:13:42;;;;;;;3.22;0.93;;;23.30;77.40;;;;;;21058615;28;20032;-59
2022/07/10 17:23:44;;;;;;;1.65;0.80;;;22.90;79.10;;;;;;21058113;28;20109;-60
2022/07/10 17:33:46;;;;;;;1.98;1.25;;;21.70;78.30;;;;;;21057128;28;20040;-58
2022/07/10 17:43:49;;;;;;;1.88;0.90;;;21.50;79.50;;;;;;21048070;28;20074;-59
2022/07/10 17:53:52;;;;;;;2.88;1.23;;;20.70;82.70;;;;;;20972193;28;20542;-59
2022/07/10 18:03:55;;;;;;;2.05;0.90;;;18.70;88.60;;;;;;20987635;28;20032;-59
2022/07/10 18:13:57;;;;;;;4.15;2.25;;;18.30;89.90;;;;;;20970724;28;20458;-58
2022/07/10 18:23:59;;;;;;;108.53;70.70;;;17.60;91.60;;;;;;20989065;28;20028;-60
2022/07/10 18:44:39;;;;;;;8.98;6.65;;;16.60;92.80;;;;;;20795818;28;20045;-60
2022/07/10 18:54:43;;;;;;;5.40;3.45;;;16.30;93.40;;;;;;20811431;28;20099;-60
2022/07/10 19:04:45;;;;;;;1.40;1.10;;;16.00;93.10;;;;;;20793911;28;20123;-55
2022/07/10 19:14:48;;;;;;;5.95;1.10;;;15.90;92.90;;;;;;20874021;28;20070;-60
2022/07/10 19:24:50;;;;;;;3.30;1.20;;;16.00;92.90;;;;;;20967442;28;20063;-56
2022/07/10 19:34:55;;;;;;;2.05;1.00;;;16.00;92.90;;;;;;20966722;28;20029;-60
2022/07/10 19:44:58;;;;;;;1.88;1.20;;;16.10;93.30;;;;;;21000463;28;20066;-60
2022/07/10 19:55:03;;;;;;;3.08;1.10;;;16.10;93.10;;;;;;21050150;28;20093;-60
2022/07/10 20:05:07;;;;;;;2.97;1.20;;;15.90;93.40;;;;;;21054263;28;20511;-60
2022/07/10 20:15:10;;;;;;;2.42;1.65;;;15.60;94.00;;;;;;21063984;28;20048;-60
2022/07/10 20:25:13;;;;;;;3.67;1.60;;;15.60;94.20;;;;;;21027440;28;20082;-60
2022/07/10 20:35:16;;;;;;;5.60;2.20;;;15.70;94.20;;;;;;20978539;28;20036;-60
2022/07/10 20:45:18;;;;;;;3.95;2.00;;;15.80;93.90;;;;;;20994903;28;20094;-57
2022/07/10 20:55:23;;;;;;;3.47;2.00;;;15.90;93.70;;;;;;20978502;28;20083;-60
2022/07/10 21:05:28;;;;;;;2.30;1.50;;;15.70;94.10;;;;;;21059796;28;20344;-60
2022/07/10 21:15:30;;;;;;;2.60;1.50;;;15.60;94.50;;;;;;21057901;28;20036;-60
2022/07/10 21:25:33;;;;;;;3.80;1.60;;;15.60;95.00;;;;;;21058638;28;20032;-56
2022/07/10 21:35:35;;;;;;;3.05;1.33;;;15.50;95.50;;;;;;21057460;28;20641;-60
2022/07/10 21:45:38;;;;;;;2.15;1.50;;;15.20;96.10;;;;;;21033797;28;20040;-60
2022/07/10 21:55:41;;;;;;;3.83;1.40;;;14.90;96.80;;;;;;20971978;28;20040;-53
2022/07/10 22:05:43;;;;;;;3.85;1.83;;;14.70;97.30;;;;;;20972280;28;20056;-60
2022/07/10 22:15:45;;;;;;;2.78;1.88;;;14.50;97.70;;;;;;20971112;28;20032;-60
2022/07/10 22:25:50;;;;;;;4.82;2.00;;;14.20;98.70;;;;;;21010171;28;20056;-60
2022/07/10 22:35:53;;;;;;;3.42;2.10;;;13.90;99.10;;;;;;21052683;28;20036;-60
2022/07/10 22:45:56;;;;;;;3.85;2.30;;;13.70;99.70;;;;;;21053347;28;20100;-60
2022/07/10 22:55:59;;;;;;;3.22;2.85;;;13.50;99.90;;;;;;21044322;28;20109;-60
2022/07/10 23:06:01;;;;;;;2.88;2.20;;;13.30;99.90;;;;;;20968272;28;20102;-59
2022/07/10 23:16:04;;;;;;;7.63;2.65;;;13.20;99.90;;;;;;20967996;28;20075;-54
2022/07/10 23:26:06;;;;;;;6.80;2.40;;;13.20;99.90;;;;;;20983418;28;20037;-60
2022/07/10 23:36:08;;;;;;;3.53;2.03;;;13.30;99.90;;;;;;20966378;28;20090;-60
2022/07/10 23:46:11;;;;;;;3.00;2.40;;;13.00;99.90;;;;;;21010400;28;20044;-60
2022/07/10 23:56:14;;;;;;;4.47;2.67;;;12.90;99.90;;;;;;21065345;28;20349;-60
